createdAt,value
2018-07-09T00:00:59.903Z,5.07
2018-07-09T00:03:28.748Z,4.87
2018-07-09T00:05:57.833Z,5.03
2018-07-09T00:08:26.525Z,5.53
2018-07-09T00:11:00.914Z,5.00
2018-07-09T00:13:30.377Z,5.67
2018-07-09T00:15:59.273Z,5.00
2018-07-09T00:18:28.247Z,5.77
2018-07-09T00:20:57.000Z,5.03
2018-07-09T00:23:25.668Z,4.87
2018-07-09T00:25:54.957Z,5.17
2018-07-09T00:28:24.095Z,5.57
2018-07-09T00:30:52.942Z,4.83
2018-07-09T00:33:22.456Z,5.30
2018-07-09T00:35:51.234Z,5.50
2018-07-09T00:38:20.318Z,5.27
2018-07-09T00:40:48.968Z,5.27
2018-07-09T00:43:17.781Z,5.70
2018-07-09T00:45:46.506Z,5.93
2018-07-09T00:48:15.222Z,5.80
2018-07-09T00:50:43.921Z,6.10
2018-07-09T00:53:12.567Z,6.27
2018-07-09T00:55:41.334Z,5.57
2018-07-09T00:58:10.323Z,5.60
2018-07-09T01:00:39.238Z,6.23
2018-07-09T01:03:07.869Z,5.90
2018-07-09T01:05:36.954Z,5.90
2018-07-09T01:08:05.855Z,6.33
2018-07-09T01:10:39.654Z,6.47
2018-07-09T01:13:08.489Z,6.53
2018-07-09T01:15:37.441Z,7.03
2018-07-09T01:18:06.433Z,6.60
2018-07-09T01:20:35.385Z,6.07
2018-07-09T01:23:04.131Z,6.70
2018-07-09T01:25:33.248Z,6.63
2018-07-09T01:28:01.985Z,6.30
2018-07-09T01:30:35.738Z,6.27
2018-07-09T01:33:04.530Z,6.37
2018-07-09T01:35:34.343Z,6.83
2018-07-09T01:38:03.197Z,7.00
2018-07-09T01:40:31.777Z,6.70
2018-07-09T01:43:00.707Z,7.30
2018-07-09T01:45:29.431Z,6.43
2018-07-09T01:47:58.273Z,7.30
2018-07-09T01:50:27.031Z,7.33
2018-07-09T01:52:55.749Z,6.90
2018-07-09T01:55:24.546Z,7.00
2018-07-09T01:57:53.394Z,6.97
2018-07-09T02:00:22.245Z,7.00
2018-07-09T02:02:51.022Z,6.30
2018-07-09T02:05:19.748Z,7.77
2018-07-09T02:07:48.619Z,8.63
2018-07-09T02:10:17.275Z,11.20
2018-07-09T02:12:46.172Z,12.87
2018-07-09T02:15:14.951Z,16.73
2018-07-09T02:17:43.523Z,14.83
2018-07-09T02:20:12.230Z,16.10
2018-07-09T02:22:41.678Z,16.80
2018-07-09T02:25:10.427Z,16.27
2018-07-09T02:27:39.185Z,13.80
2018-07-09T02:30:07.852Z,12.33
2018-07-09T02:32:36.565Z,12.77
2018-07-09T02:35:05.342Z,11.87
2018-07-09T02:37:34.142Z,10.50
2018-07-09T02:40:02.807Z,10.53
2018-07-09T02:42:31.589Z,10.17
2018-07-09T02:45:00.445Z,9.83
2018-07-09T02:47:29.111Z,11.07
2018-07-09T02:49:57.718Z,9.20
2018-07-09T02:52:26.341Z,9.50
2018-07-09T02:54:54.999Z,8.50
2018-07-09T02:57:23.565Z,7.80
2018-07-09T02:59:52.280Z,7.83
2018-07-09T03:02:20.942Z,7.63
2018-07-09T03:04:49.822Z,7.43
2018-07-09T03:07:18.377Z,7.57
2018-07-09T03:09:46.986Z,7.57
2018-07-09T03:12:15.702Z,6.87
2018-07-09T03:14:44.482Z,7.37
2018-07-09T03:17:13.146Z,6.87
2018-07-09T03:19:41.891Z,7.03
2018-07-09T03:22:10.625Z,7.63
2018-07-09T03:24:39.306Z,6.73
2018-07-09T03:27:07.898Z,7.13
2018-07-09T03:29:36.581Z,6.73
2018-07-09T03:32:05.215Z,6.53
2018-07-09T03:34:34.010Z,6.70
2018-07-09T03:37:02.626Z,5.70
2018-07-09T03:39:31.466Z,6.20
2018-07-09T03:42:00.153Z,6.00
2018-07-09T03:44:28.817Z,6.30
2018-07-09T03:46:57.439Z,5.57
2018-07-09T03:49:26.045Z,5.43
2018-07-09T03:51:54.670Z,5.30
2018-07-09T03:54:23.306Z,5.53
2018-07-09T03:56:52.013Z,4.97
2018-07-09T03:59:20.773Z,4.50
2018-07-09T04:01:49.486Z,4.60
2018-07-09T04:04:18.114Z,4.43
2018-07-09T04:06:46.726Z,4.90
2018-07-09T04:09:15.642Z,5.00
2018-07-09T04:11:44.295Z,4.17
2018-07-09T04:14:12.847Z,4.63
2018-07-09T04:16:41.490Z,4.30
2018-07-09T04:19:10.118Z,3.67
2018-07-09T04:21:38.704Z,3.97
2018-07-09T04:24:07.302Z,3.87
2018-07-09T04:26:35.898Z,4.33
2018-07-09T04:29:04.490Z,4.23
2018-07-09T04:31:33.102Z,4.30
2018-07-09T04:34:01.811Z,3.83
2018-07-09T04:36:30.438Z,4.07
2018-07-09T04:38:59.049Z,3.53
2018-07-09T04:41:27.625Z,4.10
2018-07-09T04:43:56.235Z,3.67
2018-07-09T04:46:24.859Z,3.53
2018-07-09T04:48:53.721Z,3.40
2018-07-09T04:51:22.382Z,3.73
2018-07-09T04:53:50.959Z,3.40
2018-07-09T04:56:19.574Z,3.40
2018-07-09T04:58:48.242Z,3.47
2018-07-09T05:01:17.026Z,4.10
2018-07-09T05:03:45.879Z,4.00
2018-07-09T05:06:14.710Z,4.00
2018-07-09T05:08:43.470Z,3.50
2018-07-09T05:11:12.105Z,3.93
2018-07-09T05:13:40.977Z,4.03
2018-07-09T05:16:09.833Z,4.00
2018-07-09T05:18:38.504Z,3.70
2018-07-09T05:21:07.307Z,3.87
2018-07-09T05:23:35.935Z,3.80
2018-07-09T05:26:04.712Z,3.87
2018-07-09T05:28:34.157Z,3.93
2018-07-09T05:31:02.879Z,3.63
2018-07-09T05:33:32.520Z,3.67
2018-07-09T05:36:01.975Z,3.80
2018-07-09T05:38:30.782Z,3.60
2018-07-09T05:40:59.545Z,4.58
2018-07-09T05:43:34.749Z,3.58
2018-07-09T05:46:03.471Z,4.55
2018-07-09T05:48:32.169Z,3.92
2018-07-09T05:51:00.874Z,3.92
2018-07-09T05:53:29.746Z,4.47
2018-07-09T05:55:58.469Z,4.25
2018-07-09T05:58:27.143Z,3.92
2018-07-09T06:00:55.917Z,4.20
2018-07-09T06:03:24.617Z,4.10
2018-07-09T06:05:53.273Z,4.37
2018-07-09T06:08:21.984Z,4.50
2018-07-09T06:10:50.725Z,4.10
2018-07-09T06:13:19.489Z,4.15
2018-07-09T06:15:48.135Z,4.65
2018-07-09T06:18:16.806Z,4.85
2018-07-09T06:20:45.565Z,4.30
2018-07-09T06:23:14.216Z,4.30
2018-07-09T06:25:42.870Z,4.70
2018-07-09T06:28:11.506Z,4.78
2018-07-09T06:30:40.158Z,4.55
2018-07-09T06:33:08.873Z,4.47
2018-07-09T06:35:37.693Z,5.05
2018-07-09T06:38:06.535Z,4.33
2018-07-09T06:40:35.112Z,4.05
2018-07-09T06:43:03.919Z,4.15
2018-07-09T06:45:32.548Z,4.08
2018-07-09T06:48:01.193Z,4.17
2018-07-09T06:50:29.908Z,4.87
2018-07-09T06:52:58.582Z,4.50
2018-07-09T06:55:27.196Z,4.05
2018-07-09T06:57:55.984Z,4.10
2018-07-09T07:00:24.592Z,4.58
2018-07-09T07:02:54.266Z,4.05
2018-07-09T07:05:23.093Z,3.60
2018-07-09T07:07:51.889Z,3.92
2018-07-09T07:10:20.900Z,4.42
2018-07-09T07:12:49.688Z,3.70
2018-07-09T07:15:18.477Z,4.10
2018-07-09T07:17:47.113Z,3.62
2018-07-09T07:20:15.756Z,3.62
2018-07-09T07:22:45.422Z,4.17
2018-07-09T07:25:14.814Z,3.47
2018-07-09T07:27:43.443Z,3.20
2018-07-09T07:30:12.093Z,3.52
2018-07-09T07:32:40.784Z,3.95
2018-07-09T07:35:09.401Z,3.83
2018-07-09T07:37:38.052Z,3.67
2018-07-09T07:40:06.819Z,3.62
2018-07-09T07:42:35.484Z,3.52
2018-07-09T07:45:04.078Z,3.60
2018-07-09T07:47:32.645Z,3.75
2018-07-09T07:50:01.419Z,3.75
2018-07-09T07:52:30.014Z,2.98
2018-07-09T07:54:58.679Z,3.47
2018-07-09T07:57:27.373Z,3.45
2018-07-09T07:59:56.068Z,3.30
2018-07-09T08:02:24.800Z,2.95
2018-07-09T08:04:53.594Z,3.17
2018-07-09T08:07:22.406Z,3.47
2018-07-09T08:09:51.091Z,3.12
2018-07-09T08:14:48.733Z,3.20
2018-07-09T08:17:18.072Z,3.10
2018-07-09T08:19:46.786Z,3.22
2018-07-09T08:22:15.610Z,3.15
2018-07-09T08:24:44.323Z,3.12
2018-07-09T08:27:12.971Z,3.40
2018-07-09T08:30:44.611Z,3.20
2018-07-09T08:33:13.241Z,3.62
2018-07-09T08:35:41.859Z,3.70
2018-07-09T08:38:10.539Z,3.70
2018-07-09T08:40:39.298Z,3.60
2018-07-09T08:43:08.026Z,3.72
2018-07-09T08:45:36.675Z,3.50
2018-07-09T08:48:05.438Z,3.62
2018-07-09T08:50:34.519Z,3.70
2018-07-09T08:53:03.262Z,4.10
2018-07-09T08:55:32.013Z,4.00
2018-07-09T08:58:00.688Z,3.27
2018-07-09T09:00:30.106Z,3.83
2018-07-09T09:02:58.893Z,3.70
2018-07-09T09:05:27.578Z,3.50
2018-07-09T09:07:56.343Z,3.30
2018-07-09T09:10:25.048Z,3.30
2018-07-09T09:12:53.714Z,3.58
2018-07-09T09:15:22.441Z,3.95
2018-07-09T09:17:51.822Z,3.80
2018-07-09T09:20:22.121Z,3.90
2018-07-09T09:22:50.830Z,3.37
2018-07-09T09:25:19.569Z,3.67
2018-07-09T09:27:48.305Z,3.77
2018-07-09T09:30:16.972Z,3.77
2018-07-09T09:32:47.747Z,3.42
2018-07-09T09:35:16.352Z,3.67
2018-07-09T09:37:46.875Z,3.70
2018-07-09T09:40:15.542Z,3.60
2018-07-09T09:42:44.244Z,3.55
2018-07-09T09:45:12.811Z,3.45
2018-07-09T09:47:41.378Z,3.40
2018-07-09T09:50:09.910Z,3.42
2018-07-09T09:52:38.490Z,3.47
2018-07-09T09:55:07.076Z,4.08
2018-07-09T09:57:35.638Z,3.30
2018-07-09T10:00:04.836Z,3.75
2018-07-09T10:02:33.486Z,3.92
2018-07-09T10:05:02.030Z,3.75
2018-07-09T10:07:30.597Z,4.15
2018-07-09T10:09:59.285Z,3.75
2018-07-09T10:12:27.840Z,4.00
2018-07-09T10:14:56.409Z,4.08
2018-07-09T10:17:25.070Z,4.45
2018-07-09T10:19:53.624Z,4.25
2018-07-09T10:22:22.164Z,4.30
2018-07-09T10:24:50.708Z,4.58
2018-07-09T10:27:19.235Z,3.80
2018-07-09T10:29:47.804Z,3.87
2018-07-09T10:32:16.329Z,3.90
2018-07-09T10:34:44.920Z,4.35
2018-07-09T10:37:13.494Z,3.83
2018-07-09T10:39:42.122Z,3.67
2018-07-09T10:42:10.694Z,3.87
2018-07-09T10:44:39.240Z,3.92
2018-07-09T10:47:07.802Z,3.75
2018-07-09T10:49:36.351Z,3.72
2018-07-09T10:52:04.927Z,3.83
2018-07-09T10:54:33.583Z,3.75
2018-07-09T10:57:02.277Z,4.15
2018-07-09T10:59:30.799Z,3.65
2018-07-09T11:01:59.356Z,3.77
2018-07-09T11:04:27.914Z,3.87
2018-07-09T11:06:56.490Z,4.20
2018-07-09T11:09:25.013Z,4.62
2018-07-09T11:11:53.578Z,4.00
2018-07-09T11:14:22.094Z,4.00
2018-07-09T11:16:50.739Z,4.50
2018-07-09T11:19:19.274Z,3.92
2018-07-09T11:21:47.843Z,3.92
2018-07-09T11:24:16.521Z,4.00
2018-07-09T11:26:45.713Z,4.30
2018-07-09T11:29:14.284Z,3.70
2018-07-09T11:31:43.293Z,4.15
2018-07-09T11:34:11.815Z,3.67
2018-07-09T11:36:40.381Z,3.65
2018-07-09T11:39:09.124Z,3.55
2018-07-09T11:41:37.701Z,3.75
2018-07-09T11:44:06.225Z,3.90
2018-07-09T11:46:34.761Z,3.30
2018-07-09T11:49:03.289Z,3.42
2018-07-09T11:51:31.850Z,3.55
2018-07-09T11:54:01.266Z,3.60
2018-07-09T11:56:29.795Z,3.67
2018-07-09T11:58:58.441Z,3.37
2018-07-09T12:01:27.001Z,3.90
2018-07-09T12:03:55.544Z,3.35
2018-07-09T12:06:24.067Z,3.80
2018-07-09T12:08:52.652Z,3.15
2018-07-09T12:11:21.248Z,3.42
2018-07-09T12:13:49.759Z,3.52
2018-07-09T12:16:18.253Z,3.33
2018-07-09T12:18:46.773Z,4.05
2018-07-09T12:21:15.321Z,3.40
2018-07-09T12:23:43.882Z,3.65
2018-07-09T12:26:12.422Z,3.30
2018-07-09T12:28:41.340Z,3.30
2018-07-09T12:31:09.887Z,3.90
2018-07-09T12:33:38.468Z,3.40
2018-07-09T12:36:07.352Z,3.20
2018-07-09T12:38:35.878Z,3.50
2018-07-09T12:41:04.643Z,3.22
2018-07-09T12:43:33.178Z,3.58
2018-07-09T12:46:01.777Z,4.00
2018-07-09T12:48:30.475Z,3.03
2018-07-09T12:50:59.044Z,3.30
2018-07-09T12:53:27.592Z,3.47
2018-07-09T12:55:56.227Z,3.67
2018-07-09T12:58:24.934Z,3.20
2018-07-09T13:00:53.743Z,3.70
2018-07-09T13:03:22.722Z,3.40
2018-07-09T13:05:51.320Z,3.40
2018-07-09T13:08:19.835Z,3.57
2018-07-09T13:10:48.400Z,3.50
2018-07-09T13:13:16.928Z,3.60
2018-07-09T13:15:45.488Z,3.80
2018-07-09T13:18:14.054Z,3.60
2018-07-09T13:20:42.678Z,3.93
2018-07-09T13:23:11.261Z,4.07
2018-07-09T13:25:39.810Z,4.23
2018-07-09T13:28:08.379Z,4.30
2018-07-09T13:30:36.959Z,4.17
2018-07-09T13:33:05.583Z,4.40
2018-07-09T13:35:34.182Z,4.00
2018-07-09T13:38:03.086Z,3.90
2018-07-09T13:40:32.566Z,4.30
2018-07-09T13:43:02.247Z,3.80
2018-07-09T13:45:31.171Z,3.87
2018-07-09T13:48:00.733Z,4.10
2018-07-09T13:50:29.493Z,3.63
2018-07-09T13:52:59.289Z,4.23
2018-07-09T13:55:28.174Z,4.00
2018-07-09T13:57:56.957Z,3.90
2018-07-09T14:00:25.764Z,3.90
2018-07-09T14:02:55.735Z,3.93
2018-07-09T14:05:24.596Z,3.67
2018-07-09T14:07:53.489Z,3.80
2018-07-09T14:10:22.345Z,3.60
2018-07-09T14:12:50.996Z,4.13
2018-07-09T14:15:19.700Z,4.00
2018-07-09T14:17:49.330Z,3.57
2018-07-09T14:20:33.462Z,3.40
2018-07-09T14:23:02.861Z,4.00
2018-07-09T14:25:31.445Z,3.90
2018-07-09T14:28:00.255Z,3.83
2018-07-09T14:30:29.010Z,3.63
2018-07-09T14:32:57.664Z,4.13
2018-07-09T14:35:26.578Z,3.90
2018-07-09T14:37:55.134Z,4.23
2018-07-09T14:40:24.181Z,3.50
2018-07-09T14:42:53.638Z,3.63
2018-07-09T14:45:22.368Z,3.70
2018-07-09T14:47:50.905Z,4.00
2018-07-09T14:50:19.580Z,3.57
2018-07-09T14:52:48.241Z,3.77
2018-07-09T14:55:16.965Z,3.67
2018-07-09T14:57:45.565Z,3.50
2018-07-09T15:00:14.322Z,3.10
2018-07-09T15:02:44.183Z,3.53
2018-07-09T15:05:12.823Z,2.97
2018-07-09T15:07:41.468Z,3.33
2018-07-09T15:10:13.887Z,3.60
2018-07-09T15:12:44.829Z,3.57
2018-07-09T15:15:13.458Z,3.30
2018-07-09T15:17:42.100Z,3.53
2018-07-09T15:20:10.822Z,4.10
2018-07-09T15:22:39.432Z,3.80
2018-07-09T15:25:08.090Z,4.13
2018-07-09T15:27:36.898Z,3.93
2018-07-09T15:30:05.611Z,4.40
2018-07-09T15:32:34.225Z,4.23
2018-07-09T15:35:02.917Z,4.33
2018-07-09T15:37:31.662Z,4.10
2018-07-09T15:40:00.325Z,4.27
2018-07-09T15:42:28.949Z,4.20
2018-07-09T15:44:57.641Z,4.07
2018-07-09T15:47:26.476Z,4.33
2018-07-09T15:49:55.220Z,3.87
2018-07-09T15:52:23.871Z,4.27
2018-07-09T15:54:52.483Z,3.37
2018-07-09T15:57:21.092Z,4.07
2018-07-09T15:59:49.726Z,4.27
2018-07-09T16:02:18.291Z,3.90
2018-07-09T16:04:46.932Z,3.93
2018-07-09T16:07:15.565Z,4.20
2018-07-09T16:09:44.300Z,3.93
2018-07-09T16:12:12.999Z,4.80
2018-07-09T16:14:41.689Z,4.13
2018-07-09T16:17:10.463Z,3.67
2018-07-09T16:19:39.276Z,4.20
2018-07-09T16:22:08.019Z,4.67
2018-07-09T16:24:36.684Z,4.43
2018-07-09T16:27:05.262Z,4.03
2018-07-09T16:29:33.807Z,3.97
2018-07-09T16:32:02.364Z,3.67
2018-07-09T16:34:30.885Z,3.77
2018-07-09T16:36:59.504Z,4.67
2018-07-09T16:39:28.082Z,3.87
2018-07-09T16:41:56.604Z,3.97
2018-07-09T16:44:25.183Z,3.83
2018-07-09T16:46:53.762Z,4.13
2018-07-09T16:49:22.351Z,3.77
2018-07-09T16:51:50.899Z,3.33
2018-07-09T16:54:19.473Z,3.73
2018-07-09T16:56:48.020Z,3.50
2018-07-09T16:59:16.613Z,3.10
2018-07-09T17:01:45.115Z,3.50
2018-07-09T17:04:13.662Z,3.20
2018-07-09T17:06:42.189Z,3.33
2018-07-09T17:09:10.902Z,3.30
2018-07-09T17:11:39.720Z,3.37
2018-07-09T17:14:08.362Z,3.00
2018-07-09T17:16:36.949Z,3.43
2018-07-09T17:19:05.536Z,3.83
2018-07-09T17:21:34.066Z,3.27
2018-07-09T17:24:02.655Z,3.90
2018-07-09T17:26:31.430Z,3.80
2018-07-09T17:28:59.789Z,3.53
2018-07-09T17:31:28.398Z,3.40
2018-07-09T17:33:56.951Z,3.60
2018-07-09T17:36:25.520Z,3.73
2018-07-09T17:38:54.823Z,3.63
2018-07-09T17:41:23.412Z,4.00
2018-07-09T17:43:51.975Z,3.77
2018-07-09T17:46:20.522Z,4.23
2018-07-09T17:48:49.028Z,4.10
2018-07-09T17:51:17.593Z,4.20
2018-07-09T17:53:46.104Z,4.60
2018-07-09T17:56:14.653Z,4.47
2018-07-09T17:58:43.188Z,4.20
2018-07-09T18:01:11.756Z,4.73
2018-07-09T18:03:40.286Z,4.60
2018-07-09T18:06:08.817Z,4.40
2018-07-09T18:08:37.341Z,4.10
2018-07-09T18:11:05.922Z,4.23
2018-07-09T18:13:34.514Z,4.40
2018-07-09T18:16:03.119Z,4.47
2018-07-09T18:18:31.661Z,4.57
2018-07-09T18:21:00.233Z,4.73
2018-07-09T18:23:28.786Z,5.03
2018-07-09T18:25:57.356Z,4.60
2018-07-09T18:28:25.939Z,4.70
2018-07-09T18:30:54.485Z,4.77
2018-07-09T18:33:23.064Z,4.60
2018-07-09T18:35:51.570Z,4.93
2018-07-09T18:38:20.132Z,5.00
2018-07-09T18:40:48.666Z,4.37
2018-07-09T18:43:17.247Z,5.00
2018-07-09T18:45:45.837Z,5.37
2018-07-09T18:48:14.475Z,5.13
2018-07-09T18:50:43.029Z,4.77
2018-07-09T18:53:11.590Z,4.80
2018-07-09T18:55:40.158Z,4.80
2018-07-09T18:58:08.901Z,4.50
2018-07-09T19:00:37.466Z,5.00
2018-07-09T19:03:06.221Z,5.10
2018-07-09T19:05:48.832Z,5.03
2018-07-09T19:08:17.409Z,5.20
2018-07-09T19:10:45.949Z,5.53
2018-07-09T19:13:14.512Z,5.70
2018-07-09T19:15:43.062Z,6.50
2018-07-09T19:18:25.367Z,6.07
2018-07-09T19:21:46.794Z,4.97
2018-07-09T19:24:14.215Z,4.97
2018-07-09T19:26:41.845Z,4.87
2018-07-09T19:29:09.178Z,4.90
2018-07-09T19:31:36.521Z,5.13
2018-07-09T19:34:03.832Z,4.17
2018-07-09T19:36:31.184Z,5.00
2018-07-09T19:38:58.467Z,5.40
2018-07-09T19:41:25.796Z,4.83
2018-07-09T19:43:53.093Z,5.63
2018-07-09T19:46:20.418Z,4.53
2018-07-09T19:48:47.777Z,4.33
2018-07-09T19:51:15.090Z,4.40
2018-07-09T19:53:42.430Z,4.27
2018-07-09T19:56:09.712Z,3.90
2018-07-09T19:58:37.020Z,4.10
2018-07-09T20:01:04.333Z,4.10
2018-07-09T20:03:31.645Z,3.80
2018-07-09T20:05:59.086Z,3.47
2018-07-09T20:08:31.626Z,3.43
2018-07-09T20:11:04.228Z,3.63
2018-07-09T20:14:02.046Z,3.60
2018-07-09T20:16:34.565Z,3.20
2018-07-09T20:19:01.894Z,3.77
2018-07-09T20:21:30.110Z,3.70
2018-07-09T20:23:57.618Z,3.53
2018-07-09T20:26:25.001Z,3.83
2018-07-09T20:28:52.313Z,3.10
2018-07-09T20:31:20.201Z,3.57
2018-07-09T20:33:47.625Z,3.00
2018-07-09T20:36:15.998Z,3.30
2018-07-09T20:38:43.506Z,3.00
2018-07-09T20:41:11.117Z,2.97
2018-07-09T20:43:38.625Z,2.93
2018-07-09T20:46:06.893Z,3.17
2018-07-09T20:48:47.425Z,2.47
2018-07-09T20:51:14.948Z,2.70
2018-07-09T20:53:42.309Z,2.97
2018-07-09T20:56:09.597Z,2.90
2018-07-09T20:58:37.013Z,2.67
2018-07-09T21:01:04.441Z,2.30
2018-07-09T21:03:31.766Z,2.93
2018-07-09T21:05:59.109Z,2.80
2018-07-09T21:08:26.425Z,2.77
2018-07-09T21:10:53.702Z,2.80
2018-07-09T21:13:21.118Z,2.90
2018-07-09T21:15:48.554Z,2.87
2018-07-09T21:18:15.737Z,2.63
2018-07-09T21:20:43.053Z,2.63
2018-07-09T21:23:10.377Z,2.90
2018-07-09T21:25:37.697Z,3.37
2018-07-09T21:28:05.018Z,2.50
2018-07-09T21:30:32.307Z,2.77
2018-07-09T21:32:59.750Z,3.10
2018-07-09T21:35:27.316Z,3.00
2018-07-09T21:37:54.802Z,2.43
2018-07-09T21:40:22.131Z,2.50
2018-07-09T21:42:49.684Z,2.50
2018-07-09T21:45:17.098Z,2.20
2018-07-09T21:47:44.446Z,2.50
2018-07-09T21:50:11.855Z,2.30
2018-07-09T21:52:39.255Z,2.30
2018-07-09T21:55:06.643Z,2.80
2018-07-09T21:57:34.017Z,2.50
2018-07-09T22:00:01.436Z,2.80
2018-07-09T22:02:28.843Z,2.83
2018-07-09T22:04:56.917Z,2.50
2018-07-09T22:07:24.414Z,2.77
2018-07-09T22:09:51.778Z,2.57
2018-07-09T22:12:19.266Z,2.50
2018-07-09T22:14:46.668Z,2.63
2018-07-09T22:17:14.013Z,2.40
2018-07-09T22:19:41.478Z,2.73
2018-07-09T22:22:08.911Z,2.43
2018-07-09T22:24:36.333Z,2.50
2018-07-09T22:27:03.867Z,2.50
2018-07-09T22:29:31.256Z,2.63
2018-07-09T22:31:59.931Z,2.53
2018-07-09T22:34:28.578Z,2.50
2018-07-09T22:36:57.411Z,2.80
2018-07-09T22:39:26.115Z,2.60
2018-07-09T22:41:54.808Z,2.70
2018-07-09T22:44:23.526Z,2.40
2018-07-09T22:46:52.334Z,2.60
2018-07-09T22:49:21.189Z,2.50
2018-07-09T22:51:51.126Z,2.23
2018-07-09T22:54:19.856Z,2.20
2018-07-09T22:56:48.722Z,2.27
2018-07-09T22:59:17.830Z,2.77
2018-07-09T23:01:46.834Z,2.90
2018-07-09T23:04:15.473Z,2.43
2018-07-09T23:06:45.194Z,2.30
2018-07-09T23:10:35.367Z,2.47
2018-07-09T23:13:25.006Z,2.13
2018-07-09T23:16:04.642Z,2.60
2018-07-09T23:18:44.223Z,2.50
2018-07-09T23:22:28.239Z,2.33
2018-07-09T23:24:56.491Z,2.57
2018-07-09T23:27:23.947Z,2.50
2018-07-09T23:29:51.377Z,2.87
2018-07-09T23:32:18.792Z,2.90
2018-07-09T23:34:46.277Z,2.80
2018-07-09T23:37:13.823Z,2.97
2018-07-09T23:39:41.284Z,2.60
2018-07-09T23:42:08.769Z,2.80
2018-07-09T23:44:36.080Z,2.60
2018-07-09T23:47:03.477Z,2.90
2018-07-09T23:49:31.033Z,2.77
2018-07-09T23:51:58.480Z,2.53
2018-07-09T23:54:26.448Z,2.47
2018-07-09T23:59:05.074Z,2.53
